Date,TemperatureHighF,TemperatureAvgF,TemperatureLowF,DewpointHighF,DewpointAvgF,DewpointLowF,HumidityHigh,HumidityAvg,HumidityLow,PressureMaxIn,PressureMinIn,WindSpeedMaxMPH,WindSpeedAvgMPH,GustSpeedMaxMPH,PrecipitationSumIn
2013-3-1,81,65,50,19,14,10,24,14,7,30.30,30.18,4,1,13,0.00
2013-3-2,82,67,57,25,16,12,19,15,7,30.24,30.10,2,0,17,0.00
2013-3-3,69,61,52,32,22,13,47,23,15,30.12,29.98,10,2,20,0.00
2013-3-4,66,54,43,42,39,33,80,58,36,30.09,30.00,2,0,14,0.00
2013-3-5,69,55,44,45,41,35,86,64,35,30.08,30.00,7,2,18,0.00
2013-3-6,60,51,45,44,39,36,88,65,41,30.10,29.98,4,0,13,0.01
2013-3-7,51,48,45,46,42,38,85,80,72,30.00,29.91,8,0,16,0.08
2013-3-8,44,44,44,33,33,33,66,66,66,29.84,29.84,1,1,13,0.00
2013-3-9,54,46,43,40,39,38,86,76,55,30.07,29.99,0,0,8,0.01
2013-3-10,60,60,60,26,26,26,27,27,27,30.15,30.15,0,0,8,0.00
2013-3-11,48,48,48,25,25,25,40,40,40,30.15,30.15,0,0,4,0.00
2013-3-12,82,71,53,34,29,23,38,23,12,30.12,30.02,6,1,16,0.00
2013-3-13,87,71,60,34,27,21,30,21,9,30.14,30.05,4,0,14,0.00
2013-3-14,90,73,62,36,29,24,29,20,10,30.12,30.03,6,1,17,0.00
2013-3-15,85,70,61,41,30,20,32,23,10,30.07,29.96,11,0,22,0.00
2013-3-16,78,64,54,46,30,20,66,30,15,29.98,29.87,5,1,16,0.00
2013-3-17,74,58,44,47,42,33,86,60,22,29.98,29.92,8,1,13,0.00
2013-3-18,68,56,45,47,44,39,88,68,36,30.06,29.96,2,0,12,0.00
2013-3-19,72,58,47,48,44,40,88,65,33,30.09,30.03,2,0,13,0.00
2013-3-20,73,61,50,46,41,35,76,50,25,30.09,29.97,7,1,13,0.00
2013-3-21,72,59,48,45,42,33,79,57,24,29.98,29.81,2,0,20,0.00
2013-3-22,75,57,47,47,43,35,88,64,23,29.92,29.80,5,0,18,0.00
2013-3-23,75,58,44,44,34,26,81,47,17,30.01,29.90,5,0,16,0.00
2013-3-24,77,63,51,35,29,22,43,30,13,30.01,29.89,1,0,13,0.00
2013-3-25,80,66,54,37,30,16,44,29,9,29.98,29.90,6,1,18,0.00
2013-3-26,74,62,52,36,28,9,47,29,12,29.96,29.89,5,0,20,0.00
2013-3-27,71,58,49,42,34,22,59,41,28,30.03,29.92,6,1,20,0.00
2013-3-28,78,62,48,43,38,32,67,46,19,30.07,30.00,4,0,14,0.00
2013-3-29,80,65,53,48,37,28,67,38,16,30.11,30.03,4,1,20,0.00
2013-3-30,78,64,53,48,43,34,75,50,23,30.11,30.03,5,1,20,0.00
2013-3-31,69,57,48,47,40,31,73,55,39,30.10,30.01,12,1,27,0.00